Time;durP1;ratioP1;P1;durP2;ratioP2;P2;SDS_P1;SDS_P2;PMS_P1;PMS_P2;Temp;Humidity;BMP_temperature;BMP_pressure;BME280_temperature;BME280_humidity;BME280_pressure;Samples;Min_cycle;Max_cycle;Signal;HPM_P1;HPM_P2
2024/01/26 00:01:56;;;;;;;4.50;2.92;;;8.80;72.00;;;;;;4943654;28;20073;-63
2024/01/26 00:04:22;;;;;;;5.78;3.20;;;8.80;72.00;;;;;;4945979;28;20138;-64
2024/01/26 00:06:48;;;;;;;6.72;3.42;;;8.90;72.10;;;;;;4947496;28;20054;-63
2024/01/26 00:09:15;;;;;;;3.53;2.67;;;8.90;72.10;;;;;;4946430;28;20511;-63
2024/01/26 00:11:42;;;;;;;6.55;2.92;;;8.90;72.20;;;;;;4949605;28;20027;-62
2024/01/26 00:14:08;;;;;;;6.35;3.08;;;8.90;72.30;;;;;;4949294;28;20062;-63
2024/01/26 00:16:36;;;;;;;6.03;2.88;;;8.90;72.20;;;;;;4953263;28;20059;-62
2024/01/26 00:19:03;;;;;;;6.82;3.10;;;8.90;72.30;;;;;;4951856;28;20057;-62
2024/01/26 00:21:29;;;;;;;6.72;4.13;;;8.90;72.20;;;;;;4950183;28;20031;-64
2024/01/26 00:23:55;;;;;;;9.35;4.68;;;8.90;72.20;;;;;;4945439;28;20062;-63
2024/01/26 00:26:20;;;;;;;7.85;4.60;;;8.90;72.20;;;;;;4943724;28;20054;-62
2024/01/26 00:28:46;;;;;;;9.18;4.78;;;8.90;72.20;;;;;;4948246;28;20035;-64
2024/01/26 00:31:18;;;;;;;7.35;4.43;;;8.90;72.10;;;;;;4944470;28;20032;-63
2024/01/26 00:33:45;;;;;;;8.93;4.78;;;8.90;72.10;;;;;;4953615;28;20030;-63
2024/01/26 00:36:11;;;;;;;10.38;5.07;;;8.80;71.70;;;;;;4949078;28;20038;-63
2024/01/26 00:38:37;;;;;;;9.32;4.93;;;8.80;71.70;;;;;;4945739;28;20049;-63
2024/01/26 00:41:03;;;;;;;4.18;3.35;;;8.80;71.70;;;;;;4945344;28;20027;-62
2024/01/26 00:43:29;;;;;;;7.85;3.15;;;8.70;71.90;;;;;;4949981;28;20513;-63
2024/01/26 00:45:54;;;;;;;4.65;2.78;;;8.70;71.90;;;;;;4858494;28;20022;-62
2024/01/26 00:48:21;;;;;;;3.92;2.53;;;8.70;72.20;;;;;;4949170;28;20367;-63
2024/01/26 00:50:50;;;;;;;4.30;2.55;;;8.60;72.20;;;;;;4948627;28;20035;-64
2024/01/26 00:53:16;;;;;;;3.70;2.13;;;8.60;72.30;;;;;;4949879;28;20042;-62
2024/01/26 00:55:42;;;;;;;4.32;3.00;;;8.60;72.20;;;;;;4945196;28;20031;-63
2024/01/26 00:58:07;;;;;;;4.53;3.08;;;8.50;72.40;;;;;;4945247;28;20382;-63
2024/01/26 01:00:33;;;;;;;4.70;2.75;;;8.50;72.60;;;;;;4948619;28;20032;-62
2024/01/26 01:02:59;;;;;;;6.03;3.30;;;8.50;72.60;;;;;;4945296;28;20367;-63
2024/01/26 01:05:24;;;;;;;3.90;2.78;;;8.50;72.50;;;;;;4943859;28;20046;-62
2024/01/26 01:07:50;;;;;;;3.78;2.80;;;8.40;72.50;;;;;;4953776;28;20658;-64
2024/01/26 01:10:16;;;;;;;4.78;3.30;;;8.40;72.50;;;;;;4947395;28;20039;-62
2024/01/26 01:12:42;;;;;;;7.43;4.00;;;8.40;72.40;;;;;;4944669;28;20036;-63
2024/01/26 01:15:11;;;;;;;10.57;4.65;;;8.40;72.40;;;;;;4946094;28;20066;-61
2024/01/26 01:17:41;;;;;;;5.45;3.88;;;8.30;72.40;;;;;;4945566;28;20035;-63
2024/01/26 01:20:10;;;;;;;7.20;4.57;;;8.30;72.50;;;;;;4946099;28;20483;-62
2024/01/26 01:22:39;;;;;;;6.78;4.22;;;8.30;72.40;;;;;;4943590;28;20566;-62
2024/01/26 01:25:06;;;;;;;8.35;4.40;;;8.30;72.40;;;;;;4943610;28;20039;-63
2024/01/26 01:27:32;;;;;;;6.70;3.88;;;8.20;72.30;;;;;;4948993;28;20062;-63
2024/01/26 01:29:59;;;;;;;7.72;3.60;;;8.20;73.10;;;;;;4937614;28;20386;-63
2024/01/26 01:32:25;;;;;;;6.68;3.72;;;8.20;72.70;;;;;;4942750;28;20035;-62
2024/01/26 01:34:52;;;;;;;5.13;3.47;;;8.20;72.90;;;;;;4946041;28;20034;-63
2024/01/26 01:37:17;;;;;;;6.72;4.00;;;8.20;73.10;;;;;;4943049;28;20749;-62
2024/01/26 01:39:43;;;;;;;4.85;3.22;;;8.10;73.10;;;;;;4948237;28;20027;-61
2024/01/26 01:42:13;;;;;;;4.32;2.97;;;8.10;73.30;;;;;;4945238;28;20055;-62
2024/01/26 01:44:44;;;;;;;5.15;3.22;;;8.10;73.50;;;;;;4949817;28;20030;-61
2024/01/26 01:47:10;;;;;;;4.30;2.72;;;8.20;73.90;;;;;;4928138;29;20042;-62
2024/01/26 01:49:37;;;;;;;4.70;2.53;;;8.20;73.70;;;;;;4948901;28;20486;-62
2024/01/26 01:52:11;;;;;;;2.55;2.22;;;8.20;73.90;;;;;;4948110;28;20027;-63
2024/01/26 01:54:37;;;;;;;2.83;2.03;;;8.20;74.30;;;;;;4943886;28;20031;-64
2024/01/26 01:57:04;;;;;;;3.15;2.20;;;8.20;73.90;;;;;;4945191;28;20449;-63
2024/01/26 01:59:33;;;;;;;3.47;2.38;;;8.30;73.90;;;;;;4944551;28;20031;-62
2024/01/26 02:01:59;;;;;;;4.35;2.00;;;8.30;73.90;;;;;;4947288;28;20031;-62
2024/01/26 02:04:25;;;;;;;3.42;2.10;;;8.30;74.00;;;;;;4949906;28;20032;-62
2024/01/26 02:07:00;;;;;;;2.42;2.00;;;8.30;74.00;;;;;;4944035;28;20034;-63
2024/01/26 02:09:26;;;;;;;;;;;8.40;74.60;;;;;;4949464;28;20022;-63
2024/01/26 02:11:52;;;;;;;3.13;1.92;;;8.40;75.30;;;;;;4940975;28;19970;-65
2024/01/26 02:14:18;;;;;;;2.35;1.63;;;8.40;73.60;;;;;;4944080;28;20562;-63
2024/01/26 02:17:00;;;;;;;2.65;1.63;;;8.40;73.90;;;;;;4940752;28;20415;-62
2024/01/26 02:19:27;;;;;;;3.67;1.67;;;8.50;74.80;;;;;;4947659;28;20046;-63
2024/01/26 02:21:53;;;;;;;2.28;1.55;;;8.50;74.20;;;;;;4946340;28;20019;-62
2024/01/26 02:24:20;;;;;;;2.75;1.52;;;8.50;74.30;;;;;;4948353;28;20447;-62
2024/01/26 02:26:46;;;;;;;5.40;1.60;;;8.50;74.40;;;;;;4954534;28;20034;-64
2024/01/26 02:29:12;;;;;;;2.03;1.40;;;8.50;74.50;;;;;;4947494;28;20162;-64
2024/01/26 02:31:38;;;;;;;1.50;1.30;;;8.60;74.60;;;;;;4948336;28;20072;-62
2024/01/26 02:34:04;;;;;;;1.40;1.30;;;8.60;74.60;;;;;;4947871;28;20055;-63
2024/01/26 02:36:32;;;;;;;2.22;1.65;;;8.60;74.60;;;;;;4949778;28;20036;-64
2024/01/26 02:38:58;;;;;;;1.38;1.25;;;8.70;74.70;;;;;;4942853;28;20024;-63
2024/01/26 02:41:24;;;;;;;3.00;1.17;;;8.70;74.60;;;;;;4944164;28;20078;-63
2024/01/26 02:43:50;;;;;;;2.47;1.40;;;8.70;74.60;;;;;;4939533;28;20039;-63
2024/01/26 02:46:17;;;;;;;1.13;0.93;;;8.70;74.60;;;;;;4880686;28;20042;-64
2024/01/26 02:48:43;;;;;;;3.20;1.10;;;8.70;74.70;;;;;;4947276;28;20031;-64
2024/01/26 02:51:09;;;;;;;1.23;1.00;;;8.80;74.70;;;;;;4948279;28;20033;-63
2024/01/26 02:53:39;;;;;;;1.73;1.30;;;8.80;74.70;;;;;;4953049;28;20042;-63
2024/01/26 02:56:06;;;;;;;1.45;1.20;;;8.80;74.90;;;;;;4949314;28;20047;-64
2024/01/26 02:58:31;;;;;;;1.63;1.40;;;8.80;74.80;;;;;;4951175;28;20035;-64
2024/01/26 03:00:58;;;;;;;1.58;1.35;;;8.80;75.00;;;;;;4945597;28;20395;-63
2024/01/26 03:03:24;;;;;;;1.55;1.25;;;8.80;75.00;;;;;;4948270;28;20046;-64
2024/01/26 03:05:50;;;;;;;1.83;1.30;;;8.90;75.00;;;;;;4955072;28;20039;-64
2024/01/26 03:08:15;;;;;;;1.60;1.23;;;8.90;75.10;;;;;;4947790;28;20483;-64
2024/01/26 03:10:41;;;;;;;2.17;1.38;;;8.90;75.30;;;;;;4952591;28;20125;-63
2024/01/26 03:13:06;;;;;;;1.60;1.40;;;8.90;75.30;;;;;;4945621;28;20514;-63
2024/01/26 03:15:32;;;;;;;3.53;1.10;;;8.90;75.30;;;;;;4928532;29;20122;-62
2024/01/26 03:17:58;;;;;;;1.70;1.38;;;8.90;75.50;;;;;;4948315;28;20039;-64
2024/01/26 03:20:24;;;;;;;1.20;1.10;;;9.00;75.50;;;;;;4950136;28;20038;-64
2024/01/26 03:22:49;;;;;;;4.95;1.40;;;9.00;75.60;;;;;;4946755;28;20143;-64
2024/01/26 03:25:15;;;;;;;1.27;1.15;;;9.00;75.70;;;;;;4947924;28;20041;-64
2024/01/26 03:27:41;;;;;;;1.30;1.20;;;9.00;75.60;;;;;;4946466;28;20054;-64
2024/01/26 03:30:08;;;;;;;2.05;1.20;;;9.00;75.90;;;;;;4946109;28;20058;-63
2024/01/26 03:32:34;;;;;;;2.38;1.30;;;9.00;75.80;;;;;;4945375;28;20062;-64
2024/01/26 03:35:00;;;;;;;1.10;1.10;;;9.10;76.60;;;;;;4949503;28;20027;-63
2024/01/26 03:37:25;;;;;;;1.50;0.80;;;9.10;76.50;;;;;;4949072;28;20925;-64
2024/01/26 03:39:51;;;;;;;1.85;1.00;;;9.10;76.60;;;;;;4949369;28;20850;-63
2024/01/26 03:42:17;;;;;;;0.80;0.80;;;9.20;76.60;;;;;;4945490;28;20050;-63
2024/01/26 03:44:45;;;;;;;1.60;0.95;;;9.30;77.10;;;;;;4884640;28;20528;-61
2024/01/26 03:47:11;;;;;;;2.15;0.82;;;9.30;77.30;;;;;;4948380;28;20110;-63
2024/01/26 03:49:44;;;;;;;1.10;1.05;;;9.40;77.20;;;;;;4947791;28;20035;-64
2024/01/26 03:52:10;;;;;;;1.20;1.10;;;9.50;77.40;;;;;;4948151;28;20081;-62
2024/01/26 03:54:35;;;;;;;1.20;1.17;;;9.50;76.90;;;;;;4949273;28;20023;-65
2024/01/26 03:57:01;;;;;;;1.70;1.23;;;9.60;76.80;;;;;;4945353;28;20773;-63
2024/01/26 03:59:27;;;;;;;1.35;1.00;;;9.60;76.60;;;;;;4950179;28;20573;-63
2024/01/26 04:01:52;;;;;;;1.80;1.00;;;9.70;76.60;;;;;;4942346;28;20040;-63
2024/01/26 04:04:19;;;;;;;1.10;1.10;;;9.70;76.40;;;;;;4949526;28;20035;-63
2024/01/26 04:06:45;;;;;;;1.25;1.10;;;9.70;76.50;;;;;;4943076;29;20119;-62
2024/01/26 04:09:11;;;;;;;1.55;1.20;;;9.70;76.40;;;;;;4948157;28;20146;-65
2024/01/26 04:11:36;;;;;;;2.83;1.40;;;9.80;76.40;;;;;;4951162;28;20451;-63
2024/01/26 04:14:03;;;;;;;1.35;1.15;;;9.80;76.40;;;;;;4946589;28;20060;-62
2024/01/26 04:16:28;;;;;;;2.53;1.05;;;9.80;76.20;;;;;;4947838;28;20027;-64
2024/01/26 04:18:54;;;;;;;1.83;1.42;;;9.80;76.00;;;;;;4952214;28;20070;-63
2024/01/26 04:21:20;;;;;;;3.08;1.58;;;9.80;75.80;;;;;;4950742;28;20027;-64
2024/01/26 04:23:45;;;;;;;3.42;1.40;;;9.80;75.80;;;;;;4951726;28;20046;-64
2024/01/26 04:26:11;;;;;;;3.22;1.65;;;9.80;75.80;;;;;;4948115;28;20029;-63
2024/01/26 04:28:37;;;;;;;2.45;1.50;;;9.70;75.70;;;;;;4946219;28;20036;-64
2024/01/26 04:31:06;;;;;;;3.40;1.83;;;9.80;75.70;;;;;;4942648;28;20479;-62
2024/01/26 04:33:32;;;;;;;4.82;2.35;;;9.70;75.60;;;;;;4943360;28;20520;-63
2024/01/26 04:35:57;;;;;;;5.88;2.28;;;9.70;75.50;;;;;;4952038;28;20034;-63
2024/01/26 04:38:23;;;;;;;4.78;2.15;;;9.70;75.50;;;;;;4949517;28;20405;-63
2024/01/26 04:40:49;;;;;;;3.17;1.90;;;9.70;75.50;;;;;;4951892;28;20478;-63
2024/01/26 04:43:14;;;;;;;6.57;2.20;;;9.70;75.50;;;;;;4946610;28;20053;-62
2024/01/26 04:45:41;;;;;;;4.97;2.42;;;9.70;75.30;;;;;;4856789;28;20023;-64
2024/01/26 04:48:07;;;;;;;6.28;3.13;;;9.70;75.50;;;;;;4931365;28;20082;-63
2024/01/26 04:50:33;;;;;;;6.78;3.65;;;9.70;75.50;;;;;;4951903;28;20039;-63
2024/01/26 04:52:58;;;;;;;9.13;4.22;;;9.60;75.40;;;;;;4946010;28;20055;-63
2024/01/26 04:55:30;;;;;;;11.25;5.28;;;9.70;75.50;;;;;;4944997;28;20046;-64
2024/01/26 04:57:56;;;;;;;9.15;5.50;;;9.60;75.40;;;;;;4948429;28;20110;-64
2024/01/26 05:00:22;;;;;;;9.38;5.63;;;9.60;75.40;;;;;;4946317;28;20158;-64
2024/01/26 05:02:48;;;;;;;10.18;6.20;;;9.60;75.40;;;;;;4949809;28;20047;-64
2024/01/26 05:05:14;;;;;;;9.90;6.05;;;9.60;75.40;;;;;;4947868;28;20055;-64
2024/01/26 05:07:41;;;;;;;6.88;4.45;;;9.60;75.40;;;;;;4949454;28;20038;-63
2024/01/26 05:10:07;;;;;;;6.55;4.57;;;9.60;75.40;;;;;;4947089;28;20027;-63
2024/01/26 05:12:33;;;;;;;9.05;4.38;;;9.60;75.30;;;;;;4945762;28;20068;-63
2024/01/26 05:14:59;;;;;;;10.68;4.22;;;9.60;75.30;;;;;;4944535;28;20043;-64
2024/01/26 05:17:25;;;;;;;5.20;3.90;;;9.60;75.20;;;;;;4944402;28;20055;-64
2024/01/26 05:19:50;;;;;;;9.27;4.60;;;9.60;75.20;;;;;;4943431;28;20059;-64
2024/01/26 05:22:17;;;;;;;5.15;3.83;;;9.60;75.20;;;;;;4952851;28;20120;-64
2024/01/26 05:24:43;;;;;;;7.35;4.25;;;9.50;75.20;;;;;;4947501;28;20081;-63
2024/01/26 05:27:09;;;;;;;6.63;4.32;;;9.50;75.20;;;;;;4948423;28;20055;-63
2024/01/26 05:29:35;;;;;;;5.50;3.63;;;9.50;75.20;;;;;;4953372;28;20046;-63
2024/01/26 05:32:01;;;;;;;6.57;3.92;;;9.40;75.10;;;;;;4945925;28;20101;-63
2024/01/26 05:34:27;;;;;;;6.88;3.72;;;9.50;75.10;;;;;;4945423;28;20355;-62
2024/01/26 05:36:52;;;;;;;5.45;3.63;;;9.50;75.90;;;;;;4947189;28;20038;-63
2024/01/26 05:39:18;;;;;;;6.43;2.95;;;9.40;75.20;;;;;;4948411;28;20026;-63
2024/01/26 05:41:44;;;;;;;4.55;3.17;;;9.40;75.10;;;;;;4932027;28;20485;-63
2024/01/26 05:44:10;;;;;;;7.85;3.38;;;9.40;75.10;;;;;;4944724;28;20071;-62
2024/01/26 05:46:35;;;;;;;46.08;17.15;;;9.40;75.20;;;;;;4855100;28;20050;-63
2024/01/26 05:49:01;;;;;;;16.27;6.70;;;9.40;75.30;;;;;;4949636;28;20027;-62
2024/01/26 05:51:27;;;;;;;8.52;4.20;;;9.40;75.30;;;;;;4953508;28;20436;-63
2024/01/26 05:53:53;;;;;;;5.72;3.53;;;9.40;75.40;;;;;;4947765;28;20031;-62
2024/01/26 05:56:19;;;;;;;7.63;3.40;;;9.30;75.50;;;;;;4937571;28;20031;-63
2024/01/26 05:58:45;;;;;;;7.13;4.38;;;9.30;75.50;;;;;;4949091;28;20114;-63
2024/01/26 06:01:11;;;;;;;6.68;3.47;;;9.30;75.50;;;;;;4944812;28;20058;-62
2024/01/26 06:03:37;;;;;;;22.65;12.48;;;9.30;75.50;;;;;;4949219;28;20300;-63
2024/01/26 06:06:03;;;;;;;21.88;11.60;;;9.30;75.50;;;;;;4943584;28;20402;-63
2024/01/26 06:08:29;;;;;;;38.60;18.98;;;9.30;75.50;;;;;;4951350;28;20047;-63
2024/01/26 06:10:56;;;;;;;33.22;18.42;;;9.30;75.50;;;;;;4941051;28;20046;-63
2024/01/26 06:13:23;;;;;;;11.05;6.38;;;9.30;76.20;;;;;;4945931;28;20175;-63
2024/01/26 06:15:50;;;;;;;6.80;3.42;;;9.30;75.70;;;;;;4951265;28;20497;-63
2024/01/26 06:18:15;;;;;;;2.38;2.08;;;9.30;75.70;;;;;;4943696;28;20158;-63
2024/01/26 06:20:41;;;;;;;2.25;1.80;;;9.30;75.90;;;;;;4944124;28;20114;-63
2024/01/26 06:23:07;;;;;;;1.90;1.75;;;9.30;75.90;;;;;;4944054;28;20202;-63
2024/01/26 06:25:32;;;;;;;3.00;2.50;;;9.30;75.70;;;;;;4948341;28;20533;-64
2024/01/26 06:27:58;;;;;;;2.40;2.20;;;9.30;75.90;;;;;;4949865;28;20041;-63
2024/01/26 06:30:24;;;;;;;2.83;2.10;;;9.40;76.00;;;;;;4949525;28;20027;-63
2024/01/26 06:32:51;;;;;;;2.20;2.00;;;9.40;75.80;;;;;;4929898;29;20034;-63
2024/01/26 06:35:17;;;;;;;2.00;1.67;;;9.40;75.80;;;;;;4947935;28;20100;-63
2024/01/26 06:37:43;;;;;;;5.07;3.70;;;9.40;75.80;;;;;;4951464;28;20645;-63
2024/01/26 06:40:10;;;;;;;5.38;3.28;;;9.40;75.60;;;;;;4950282;28;20046;-64
2024/01/26 06:42:42;;;;;;;4.68;2.95;;;9.50;75.90;;;;;;4952158;28;20047;-63
2024/01/26 06:45:10;;;;;;;6.50;4.03;;;9.50;75.90;;;;;;4857031;28;20705;-63
2024/01/26 06:47:36;;;;;;;8.50;2.58;;;9.50;75.80;;;;;;4946050;28;20041;-63
2024/01/26 06:50:03;;;;;;;2.28;1.98;;;9.50;75.70;;;;;;4950424;28;20093;-63
2024/01/26 06:52:29;;;;;;;3.40;2.20;;;9.50;75.40;;;;;;4948318;28;20473;-63
2024/01/26 06:54:54;;;;;;;3.17;2.10;;;9.50;75.50;;;;;;4936114;28;20035;-64
2024/01/26 06:57:20;;;;;;;2.40;2.10;;;9.50;75.50;;;;;;4935778;28;20034;-63
2024/01/26 06:59:46;;;;;;;2.40;2.20;;;9.60;75.60;;;;;;4951259;28;20035;-63
2024/01/26 07:02:12;;;;;;;2.50;2.15;;;9.50;75.50;;;;;;4947440;28;20049;-63
2024/01/26 07:04:37;;;;;;;2.30;2.00;;;9.60;75.30;;;;;;4950694;28;20136;-64
2024/01/26 07:07:03;;;;;;;2.38;2.17;;;9.50;75.30;;;;;;4944949;28;20517;-63
2024/01/26 07:09:29;;;;;;;3.25;2.35;;;9.60;75.50;;;;;;4947818;28;20117;-63
2024/01/26 07:11:54;;;;;;;5.28;2.40;;;9.60;75.40;;;;;;4956036;28;20027;-63
2024/01/26 07:14:20;;;;;;;3.65;2.58;;;9.60;75.30;;;;;;4931111;29;20126;-65
2024/01/26 07:16:49;;;;;;;2.85;2.20;;;9.60;75.40;;;;;;4948955;28;20055;-66
2024/01/26 07:19:15;;;;;;;3.33;2.70;;;9.60;75.50;;;;;;4951766;28;20556;-64
2024/01/26 07:21:41;;;;;;;6.18;2.42;;;9.60;75.50;;;;;;4946071;28;20367;-64
2024/01/26 07:24:07;;;;;;;4.22;3.08;;;9.60;75.60;;;;;;4951381;28;20062;-66
2024/01/26 07:26:33;;;;;;;10.65;4.50;;;9.60;75.40;;;;;;4946161;28;20031;-66
2024/01/26 07:28:58;;;;;;;4.80;3.67;;;9.60;75.30;;;;;;4951198;28;20497;-65
2024/01/26 07:31:24;;;;;;;5.78;3.85;;;9.60;75.20;;;;;;4943843;28;20031;-64
2024/01/26 07:33:50;;;;;;;4.38;3.22;;;9.60;75.10;;;;;;4945529;28;20023;-65
2024/01/26 07:36:16;;;;;;;5.55;3.42;;;9.70;75.20;;;;;;4947481;28;20047;-67
2024/01/26 07:38:42;;;;;;;4.78;3.08;;;9.70;75.30;;;;;;4947184;28;20042;-65
2024/01/26 07:41:08;;;;;;;4.88;3.20;;;9.60;75.10;;;;;;4949015;28;20031;-67
2024/01/26 07:43:33;;;;;;;6.18;3.30;;;9.60;75.10;;;;;;4944990;28;20039;-65
2024/01/26 07:45:59;;;;;;;7.43;3.60;;;9.70;75.10;;;;;;4880994;28;20374;-64
2024/01/26 07:48:25;;;;;;;5.13;3.65;;;9.70;75.00;;;;;;4947968;28;20062;-65
2024/01/26 07:50:51;;;;;;;4.88;3.50;;;9.60;74.80;;;;;;4950193;28;20035;-65
2024/01/26 07:53:17;;;;;;;5.28;3.88;;;9.70;75.10;;;;;;4951204;28;20122;-64
2024/01/26 07:55:42;;;;;;;4.85;3.50;;;9.60;75.00;;;;;;4945797;28;20540;-65
2024/01/26 07:58:08;;;;;;;7.70;3.78;;;9.60;75.20;;;;;;4949315;28;20549;-64
2024/01/26 08:00:34;;;;;;;4.43;3.60;;;9.70;75.10;;;;;;4950450;28;20367;-65
2024/01/26 08:02:59;;;;;;;6.72;4.32;;;9.70;75.20;;;;;;4947346;28;20045;-65
2024/01/26 08:05:25;;;;;;;5.18;3.42;;;9.70;75.40;;;;;;4939818;28;20057;-63
2024/01/26 08:07:51;;;;;;;4.28;3.60;;;9.70;75.50;;;;;;4948371;28;20443;-66
2024/01/26 08:10:17;;;;;;;4.40;3.28;;;9.80;75.70;;;;;;4946301;28;20379;-66
2024/01/26 08:12:44;;;;;;;6.35;3.60;;;9.90;75.50;;;;;;4945996;28;20495;-64
2024/01/26 08:15:10;;;;;;;5.22;3.38;;;9.90;75.60;;;;;;4944878;28;20027;-64
2024/01/26 08:17:37;;;;;;;5.65;3.67;;;10.00;75.60;;;;;;4947160;28;20430;-65
2024/01/26 08:20:03;;;;;;;7.07;4.13;;;10.00;75.50;;;;;;4950330;28;20487;-65
2024/01/26 08:22:32;;;;;;;5.55;3.90;;;10.10;75.30;;;;;;4951715;28;20513;-65
2024/01/26 08:25:00;;;;;;;5.65;3.65;;;10.20;75.30;;;;;;4942872;28;20042;-64
2024/01/26 08:27:27;;;;;;;7.43;3.78;;;10.20;75.10;;;;;;4944469;28;20508;-65
2024/01/26 08:29:52;;;;;;;5.93;3.90;;;10.30;75.00;;;;;;4945207;28;20042;-64
2024/01/26 08:32:18;;;;;;;5.85;3.67;;;10.40;74.90;;;;;;4945456;28;20035;-64
2024/01/26 08:34:44;;;;;;;3.72;2.83;;;10.40;74.80;;;;;;4949660;28;20463;-64
2024/01/26 08:37:11;;;;;;;3.30;2.78;;;10.40;74.60;;;;;;4951663;28;20102;-64
2024/01/26 08:39:37;;;;;;;4.50;3.10;;;10.40;74.40;;;;;;4945584;28;20038;-63
2024/01/26 08:42:03;;;;;;;4.63;2.95;;;10.50;74.30;;;;;;4944999;28;20034;-65
2024/01/26 08:44:32;;;;;;;6.65;3.20;;;10.50;74.30;;;;;;4948187;28;20627;-65
2024/01/26 08:47:03;;;;;;;4.10;2.87;;;10.50;74.30;;;;;;4838065;28;20054;-64
2024/01/26 08:49:29;;;;;;;3.90;2.42;;;10.60;74.40;;;;;;4948070;28;20402;-64
2024/01/26 08:51:58;;;;;;;5.15;3.03;;;10.60;74.30;;;;;;4947160;28;21759;-64
2024/01/26 08:54:24;;;;;;;4.03;2.58;;;10.60;74.20;;;;;;4949324;28;20036;-65
2024/01/26 08:56:50;;;;;;;3.60;2.30;;;10.70;74.20;;;;;;4950680;28;20178;-65
2024/01/26 08:59:16;;;;;;;4.15;2.63;;;10.70;74.30;;;;;;4946256;28;20019;-65
2024/01/26 09:01:42;;;;;;;2.30;2.05;;;10.80;74.20;;;;;;4942564;28;20506;-66
2024/01/26 09:04:08;;;;;;;6.32;2.90;;;10.80;74.10;;;;;;4947503;28;20051;-66
2024/01/26 09:06:36;;;;;;;4.15;2.42;;;10.90;74.20;;;;;;4944554;28;20047;-66
2024/01/26 09:09:03;;;;;;;4.65;2.50;;;10.90;74.10;;;;;;4944327;28;20042;-64
2024/01/26 09:11:29;;;;;;;5.05;2.40;;;10.90;73.90;;;;;;4918558;29;20069;-65
2024/01/26 09:13:56;;;;;;;4.78;2.17;;;11.00;73.80;;;;;;4947212;28;20537;-63
2024/01/26 09:16:22;;;;;;;4.30;2.13;;;11.00;73.60;;;;;;4944885;28;20027;-65
2024/01/26 09:18:47;;;;;;;4.68;2.28;;;11.10;73.60;;;;;;4949789;28;20045;-67
2024/01/26 09:21:14;;;;;;;3.65;1.80;;;11.10;73.50;;;;;;4950736;28;20518;-65
2024/01/26 09:23:40;;;;;;;2.70;1.90;;;11.10;73.40;;;;;;4945614;28;20404;-66
2024/01/26 09:26:06;;;;;;;11.02;2.03;;;11.10;73.30;;;;;;4942977;28;20027;-66
2024/01/26 09:28:32;;;;;;;1.77;1.60;;;11.20;73.40;;;;;;4946747;28;20034;-66
2024/01/26 09:30:58;;;;;;;2.55;1.90;;;11.20;73.40;;;;;;4939240;28;20125;-64
2024/01/26 09:33:23;;;;;;;2.60;1.58;;;11.30;73.50;;;;;;4928177;28;20051;-65
2024/01/26 09:35:49;;;;;;;3.72;1.70;;;11.30;73.50;;;;;;4948110;28;20046;-65
2024/01/26 09:38:15;;;;;;;2.67;1.55;;;11.30;73.40;;;;;;4947166;28;20039;-65
2024/01/26 09:40:43;;;;;;;2.15;1.50;;;11.40;73.50;;;;;;4945330;28;20023;-64
2024/01/26 09:43:09;;;;;;;2.88;1.60;;;11.40;73.50;;;;;;4952289;28;20042;-65
2024/01/26 09:45:35;;;;;;;3.78;1.42;;;11.50;73.60;;;;;;4886595;28;20019;-65
2024/01/26 09:48:05;;;;;;;3.55;2.08;;;11.50;73.50;;;;;;4947673;28;20505;-65
2024/01/26 09:50:31;;;;;;;2.58;1.70;;;11.60;73.40;;;;;;4943439;28;20043;-65
2024/01/26 09:52:58;;;;;;;2.97;1.73;;;11.70;73.30;;;;;;4941906;28;20039;-65
2024/01/26 09:55:25;;;;;;;2.78;2.22;;;11.80;73.20;;;;;;4942034;28;20019;-66
2024/01/26 09:57:53;;;;;;;4.88;1.98;;;11.90;73.10;;;;;;4947143;28;20031;-66
2024/01/26 10:00:19;;;;;;;2.10;1.40;;;12.00;73.00;;;;;;4953602;28;20469;-64
2024/01/26 10:02:45;;;;;;;2.20;1.60;;;12.00;72.70;;;;;;4956459;28;20061;-65
2024/01/26 10:05:14;;;;;;;1.92;1.35;;;12.10;72.40;;;;;;4950304;28;20813;-65
2024/01/26 10:07:40;;;;;;;1.75;1.38;;;12.10;72.30;;;;;;4950562;28;20138;-65
2024/01/26 10:10:07;;;;;;;4.30;1.80;;;12.20;72.20;;;;;;4953318;28;20150;-66
2024/01/26 10:12:35;;;;;;;3.45;1.70;;;12.20;72.20;;;;;;4946548;28;20031;-66
2024/01/26 10:15:08;;;;;;;3.05;1.42;;;12.20;72.10;;;;;;4953956;28;20471;-65
2024/01/26 10:17:35;;;;;;;4.05;2.20;;;12.20;72.00;;;;;;4957368;28;20522;-64
2024/01/26 10:20:14;;;;;;;3.22;2.00;;;12.30;72.00;;;;;;4952074;28;20042;-65
2024/01/26 10:22:41;;;;;;;3.45;2.17;;;12.30;71.90;;;;;;4946897;28;20050;-66
2024/01/26 10:25:08;;;;;;;3.28;2.00;;;12.40;71.80;;;;;;4949694;28;20335;-66
2024/01/26 10:27:35;;;;;;;3.72;2.00;;;12.40;71.80;;;;;;4949470;28;20565;-65
2024/01/26 10:30:02;;;;;;;4.57;1.92;;;12.40;71.60;;;;;;4949204;28;20031;-64
2024/01/26 10:32:30;;;;;;;6.00;1.90;;;12.40;71.50;;;;;;4956237;28;20031;-66
2024/01/26 10:35:03;;;;;;;4.35;1.88;;;12.50;71.60;;;;;;4954591;28;20026;-66
2024/01/26 10:37:33;;;;;;;4.72;2.60;;;12.50;71.50;;;;;;4952059;28;20039;-65
2024/01/26 10:40:00;;;;;;;3.85;2.40;;;12.50;71.40;;;;;;4950234;28;20110;-65
2024/01/26 10:42:32;;;;;;;2.45;1.88;;;12.50;71.40;;;;;;4951795;28;20035;-66
2024/01/26 10:45:00;;;;;;;3.15;1.73;;;12.50;71.30;;;;;;4953596;28;20042;-64
2024/01/26 10:47:27;;;;;;;5.25;1.85;;;12.50;71.20;;;;;;4951921;28;20089;-65
2024/01/26 10:50:04;;;;;;;2.35;1.80;;;12.50;71.20;;;;;;4946883;28;20114;-65
2024/01/26 10:52:37;;;;;;;3.58;1.90;;;12.50;71.20;;;;;;4931474;28;20149;-65
2024/01/26 10:55:04;;;;;;;3.88;1.67;;;12.50;71.10;;;;;;4956220;28;20043;-65
2024/01/26 10:57:29;;;;;;;6.32;2.40;;;12.50;71.20;;;;;;4950310;28;20035;-65
2024/01/26 10:59:55;;;;;;;3.22;2.03;;;12.50;71.30;;;;;;4952943;28;20976;-65
2024/01/26 11:02:31;;;;;;;3.72;1.85;;;12.50;71.40;;;;;;4953263;28;20042;-65
2024/01/26 11:05:10;;;;;;;2.63;1.80;;;12.50;71.60;;;;;;4948927;28;20047;-66
2024/01/26 11:07:37;;;;;;;2.17;1.67;;;12.50;71.70;;;;;;4953667;28;20030;-66
2024/01/26 11:10:10;;;;;;;3.15;1.50;;;12.50;71.70;;;;;;4956304;28;20654;-66
2024/01/26 11:12:37;;;;;;;2.47;1.80;;;12.50;72.00;;;;;;4948262;28;20035;-66
2024/01/26 11:15:08;;;;;;;2.90;2.15;;;12.50;71.80;;;;;;4959283;28;20474;-66
2024/01/26 11:17:50;;;;;;;2.70;1.75;;;12.60;72.10;;;;;;4951641;28;20031;-66
2024/01/26 11:20:21;;;;;;;2.58;1.35;;;12.60;72.50;;;;;;4945295;28;20329;-67
2024/01/26 11:23:09;;;;;;;2.90;2.25;;;12.60;72.70;;;;;;4947982;28;20514;-63
2024/01/26 11:25:36;;;;;;;3.22;2.00;;;12.80;72.80;;;;;;4951009;28;20031;-66
2024/01/26 11:28:04;;;;;;;5.28;2.15;;;12.80;72.50;;;;;;4947258;28;20038;-66
2024/01/26 11:30:29;;;;;;;4.35;2.20;;;12.80;72.30;;;;;;4954137;28;20034;-67
2024/01/26 11:32:56;;;;;;;2.70;1.40;;;12.90;72.30;;;;;;4948990;28;20027;-66
2024/01/26 11:35:22;;;;;;;1.58;1.33;;;12.90;71.80;;;;;;4948428;28;20387;-64
2024/01/26 11:37:50;;;;;;;3.05;1.20;;;13.00;71.70;;;;;;4949213;28;20126;-65
2024/01/26 11:40:25;;;;;;;1.60;1.15;;;13.00;71.50;;;;;;4951907;28;20031;-66
2024/01/26 11:42:52;;;;;;;1.75;1.20;;;13.00;71.40;;;;;;4949236;28;20074;-67
2024/01/26 11:45:41;;;;;;;2.60;1.38;;;13.00;71.30;;;;;;4951031;28;20352;-65
2024/01/26 11:48:07;;;;;;;1.58;1.10;;;13.00;71.40;;;;;;4949351;28;20118;-65
2024/01/26 11:50:33;;;;;;;1.75;1.25;;;13.00;71.20;;;;;;4948406;28;20043;-66
2024/01/26 11:52:59;;;;;;;1.05;1.00;;;13.00;71.30;;;;;;4948830;28;20031;-65
2024/01/26 11:55:25;;;;;;;1.90;1.02;;;13.00;71.30;;;;;;4947138;28;20059;-66
2024/01/26 11:57:51;;;;;;;4.22;2.17;;;13.00;71.20;;;;;;4950137;28;20026;-65
2024/01/26 12:00:18;;;;;;;1.58;1.30;;;13.00;71.30;;;;;;4948348;28;20205;-65
2024/01/26 12:02:44;;;;;;;4.10;1.85;;;13.00;71.30;;;;;;4946707;28;20035;-66
2024/01/26 12:05:10;;;;;;;2.30;1.58;;;13.10;71.60;;;;;;4944915;28;20051;-65
2024/01/26 12:07:36;;;;;;;1.63;1.25;;;13.10;71.60;;;;;;4945032;28;20035;-66
2024/01/26 12:10:02;;;;;;;2.53;1.33;;;13.10;71.50;;;;;;4944496;28;20032;-66
2024/01/26 12:12:29;;;;;;;1.95;1.30;;;13.10;71.40;;;;;;4950319;28;20722;-66
2024/01/26 12:14:54;;;;;;;1.75;1.25;;;13.10;71.40;;;;;;4952245;28;20035;-66
2024/01/26 12:17:20;;;;;;;2.65;1.70;;;13.10;71.50;;;;;;4942892;28;20513;-65
2024/01/26 12:19:47;;;;;;;2.95;1.73;;;13.10;71.60;;;;;;4946155;28;20027;-66
2024/01/26 12:22:13;;;;;;;3.38;2.13;;;13.00;71.70;;;;;;4946362;28;20027;-65
2024/01/26 12:24:40;;;;;;;3.97;1.48;;;13.10;71.80;;;;;;4943572;28;20039;-65
2024/01/26 12:27:07;;;;;;;2.05;1.80;;;13.00;71.80;;;;;;4945848;28;20687;-66
2024/01/26 12:29:34;;;;;;;3.67;1.85;;;13.00;71.90;;;;;;4947683;28;20098;-65
2024/01/26 12:32:04;;;;;;;3.15;1.70;;;13.00;71.90;;;;;;4947550;28;20122;-66
2024/01/26 12:34:30;;;;;;;3.47;2.00;;;13.00;72.10;;;;;;4949333;28;20757;-65
2024/01/26 12:36:59;;;;;;;2.63;1.60;;;12.90;72.00;;;;;;4949134;28;20027;-64
2024/01/26 12:39:25;;;;;;;3.15;1.48;;;12.90;72.10;;;;;;4945866;28;20027;-64
2024/01/26 12:41:53;;;;;;;3.50;1.80;;;12.90;72.10;;;;;;4950322;28;20126;-65
2024/01/26 12:44:19;;;;;;;3.55;1.58;;;12.90;72.20;;;;;;4947407;28;20046;-65
2024/01/26 12:46:45;;;;;;;2.85;1.83;;;12.80;72.20;;;;;;4945999;28;20102;-65
2024/01/26 12:49:11;;;;;;;5.65;1.85;;;12.80;72.30;;;;;;4854533;28;20109;-64
2024/01/26 12:51:37;;;;;;;4.82;1.80;;;12.80;72.40;;;;;;4950223;28;20031;-63